createdAt,value
2023-01-16T00:00:00.558Z,196.1
2023-01-16T00:05:01.171Z,186.1
2023-01-16T00:10:00.515Z,182.6
2023-01-16T00:15:00.699Z,201.3
2023-01-16T00:20:00.544Z,190.9
2023-01-16T00:25:00.759Z,192.0
2023-01-16T00:30:02.296Z,191.6
2023-01-16T00:35:00.689Z,197.6
2023-01-16T00:40:00.540Z,196.1
2023-01-16T00:45:00.706Z,200.0
2023-01-16T00:50:00.517Z,182.6
2023-01-16T00:55:00.683Z,197.9
2023-01-16T01:00:00.668Z,197.9
2023-01-16T01:05:00.706Z,188.0
2023-01-16T01:10:00.545Z,197.1
2023-01-16T01:15:00.755Z,182.1
2023-01-16T01:20:00.540Z,202.8
2023-01-16T01:25:00.713Z,194.0
2023-01-16T01:30:00.749Z,185.4
2023-01-16T01:35:00.693Z,180.9
2023-01-16T01:40:00.565Z,187.2
2023-01-16T01:45:00.854Z,186.4
2023-01-16T01:50:00.571Z,190.5
2023-01-16T01:55:00.717Z,196.9
2023-01-16T02:00:00.591Z,189.6
2023-01-16T02:05:00.771Z,192.6
2023-01-16T02:10:00.585Z,188.2
2023-01-16T02:15:00.676Z,181.8
2023-01-16T02:20:00.549Z,191.7
2023-01-16T02:25:00.773Z,185.0
2023-01-16T02:30:00.573Z,182.2
2023-01-16T02:35:00.748Z,184.1
2023-01-16T02:40:00.560Z,190.7
2023-01-16T02:45:00.706Z,176.6
2023-01-16T02:50:00.556Z,187.0
2023-01-16T02:55:00.720Z,193.3
2023-01-16T03:00:00.613Z,183.0
2023-01-16T03:05:00.687Z,190.9
2023-01-16T03:10:00.546Z,170.9
2023-01-16T03:15:00.689Z,184.4
2023-01-16T03:20:00.601Z,194.0
2023-01-16T03:25:00.862Z,177.2
2023-01-16T03:30:00.577Z,176.9
2023-01-16T03:35:00.679Z,183.7
2023-01-16T03:40:00.562Z,183.5
2023-01-16T03:45:00.737Z,174.4
2023-01-16T03:50:00.581Z,169.8
2023-01-16T03:55:00.679Z,166.2
2023-01-16T04:00:00.554Z,185.0
2023-01-16T04:05:03.320Z,174.0
2023-01-16T04:10:00.538Z,176.8
2023-01-16T04:15:00.751Z,170.6
2023-01-16T04:20:00.564Z,175.1
2023-01-16T04:25:00.704Z,180.0
2023-01-16T04:30:00.560Z,182.7
2023-01-16T04:35:00.711Z,174.9
2023-01-16T04:40:00.730Z,177.0
2023-01-16T04:45:00.699Z,175.6
2023-01-16T04:50:00.543Z,180.0
2023-01-16T04:55:00.772Z,185.4
2023-01-16T05:00:00.545Z,184.0
2023-01-16T05:05:00.697Z,172.1
2023-01-16T05:10:00.547Z,175.2
2023-01-16T05:15:00.766Z,180.1
2023-01-16T05:20:00.593Z,179.3
2023-01-16T05:25:00.781Z,180.2
2023-01-16T05:30:00.595Z,177.3
2023-01-16T05:35:00.704Z,171.4
2023-01-16T05:40:00.549Z,175.0
2023-01-16T05:45:00.779Z,171.6
2023-01-16T05:50:00.528Z,172.9
2023-01-16T05:55:00.740Z,194.2
2023-01-16T06:00:00.597Z,175.5
2023-01-16T06:05:00.781Z,187.3
2023-01-16T06:10:00.568Z,169.3
2023-01-16T06:15:00.698Z,172.4
2023-01-16T06:20:00.713Z,173.3
2023-01-16T06:25:00.819Z,170.5
2023-01-16T06:30:00.541Z,167.8
2023-01-16T06:35:00.745Z,173.4
2023-01-16T06:40:00.538Z,177.3
2023-01-16T06:45:00.713Z,174.2
2023-01-16T06:50:00.683Z,176.4
2023-01-16T06:55:00.729Z,173.9
2023-01-16T07:00:00.561Z,171.4
2023-01-16T07:05:00.747Z,178.9
2023-01-16T07:10:00.562Z,181.6
2023-01-16T07:15:00.709Z,183.1
2023-01-16T07:20:00.590Z,183.2
2023-01-16T07:25:00.724Z,175.7
2023-01-16T07:30:00.609Z,176.2
2023-01-16T07:35:00.757Z,177.9
2023-01-16T07:40:00.623Z,169.0
2023-01-16T07:45:00.727Z,166.4
2023-01-16T07:50:00.589Z,168.6
2023-01-16T07:55:00.760Z,169.2
2023-01-16T08:00:00.568Z,164.6
2023-01-16T08:05:00.711Z,164.9
2023-01-16T08:10:00.684Z,164.8
2023-01-16T08:15:00.736Z,164.8
2023-01-16T08:20:00.552Z,169.4
2023-01-16T08:25:00.756Z,172.4
2023-01-16T08:30:00.579Z,176.3
2023-01-16T08:35:00.724Z,172.4
2023-01-16T08:40:00.547Z,169.3
2023-01-16T08:45:00.795Z,186.2
2023-01-16T08:50:00.550Z,170.3
2023-01-16T08:55:00.759Z,171.4
2023-01-16T09:00:00.612Z,179.2
2023-01-16T09:05:00.735Z,211.1
2023-01-16T09:10:00.569Z,169.1
2023-01-16T09:15:00.740Z,161.2
2023-01-16T09:20:00.550Z,179.9
2023-01-16T09:25:00.756Z,167.1
2023-01-16T09:30:00.583Z,177.6
2023-01-16T09:35:00.781Z,183.5
2023-01-16T09:40:00.812Z,170.6
2023-01-16T09:45:00.616Z,170.3
2023-01-16T09:50:00.584Z,172.8
2023-01-16T09:55:01.063Z,175.4
2023-01-16T10:00:00.723Z,190.5
2023-01-16T10:05:01.164Z,186.2
2023-01-16T10:10:00.668Z,178.8
2023-01-16T10:15:00.673Z,181.4
2023-01-16T10:20:00.573Z,178.0
2023-01-16T10:25:00.690Z,184.3
2023-01-16T10:30:00.572Z,170.8
2023-01-16T10:35:00.696Z,188.3
2023-01-16T10:40:00.599Z,173.9
2023-01-16T10:45:00.704Z,176.1
2023-01-16T10:50:00.536Z,173.3
2023-01-16T10:55:00.774Z,170.3
2023-01-16T11:00:00.571Z,187.5
2023-01-16T11:05:00.785Z,170.3
2023-01-16T11:10:00.611Z,175.1
2023-01-16T11:15:00.755Z,163.8
2023-01-16T11:20:00.538Z,169.7
2023-01-16T11:25:00.962Z,170.8
2023-01-16T11:30:00.567Z,176.9
2023-01-16T11:35:00.687Z,172.1
2023-01-16T11:40:00.713Z,168.2
2023-01-16T11:45:00.687Z,167.0
2023-01-16T11:50:00.588Z,178.5
2023-01-16T11:55:00.744Z,186.7
2023-01-16T12:00:00.559Z,164.4
2023-01-16T12:05:00.974Z,166.2
2023-01-16T12:10:00.596Z,169.3
2023-01-16T12:15:00.699Z,168.3
2023-01-16T12:20:00.556Z,170.8
2023-01-16T12:25:00.769Z,172.7
2023-01-16T12:30:00.601Z,164.5
2023-01-16T12:35:00.717Z,169.2
2023-01-16T12:40:00.541Z,163.5
2023-01-16T12:45:00.889Z,169.4
2023-01-16T12:50:00.584Z,171.8
2023-01-16T12:55:00.714Z,168.0
2023-01-16T13:00:00.608Z,163.1
2023-01-16T13:05:00.717Z,166.7
2023-01-16T13:10:00.541Z,178.4
2023-01-16T13:15:00.701Z,151.1
2023-01-16T13:20:00.701Z,149.6
2023-01-16T13:25:00.696Z,170.5
2023-01-16T13:30:00.537Z,162.8
2023-01-16T13:35:00.714Z,158.3
2023-01-16T13:40:00.614Z,156.6
2023-01-16T13:45:00.710Z,164.6
2023-01-16T13:50:00.542Z,167.1
2023-01-16T13:55:00.688Z,146.1
2023-01-16T14:00:00.772Z,158.4
2023-01-16T14:05:00.722Z,145.4
2023-01-16T14:10:00.660Z,157.1
2023-01-16T14:15:00.759Z,157.4
2023-01-16T14:20:00.567Z,139.6
2023-01-16T14:25:00.698Z,148.4
2023-01-16T14:30:00.552Z,162.2
2023-01-16T14:35:01.016Z,147.7
2023-01-16T14:40:00.532Z,150.9
2023-01-16T14:45:00.718Z,144.2
2023-01-16T14:50:00.740Z,141.7
2023-01-16T14:55:00.665Z,146.9
2023-01-16T15:00:00.545Z,150.5
2023-01-16T15:05:00.841Z,154.8
2023-01-16T15:10:00.540Z,156.1
2023-01-16T15:15:00.738Z,141.5
2023-01-16T15:20:00.558Z,159.6
2023-01-16T15:25:00.694Z,149.3
2023-01-16T15:30:00.585Z,158.3
2023-01-16T15:35:02.720Z,155.9
2023-01-16T15:40:00.591Z,140.6
2023-01-16T15:45:00.823Z,155.8
2023-01-16T15:50:00.534Z,157.6
2023-01-16T15:55:00.720Z,155.4
2023-01-16T16:00:00.542Z,148.9
2023-01-16T16:05:02.677Z,156.9
2023-01-16T16:10:00.602Z,151.7
2023-01-16T16:15:00.761Z,159.1
2023-01-16T16:20:00.520Z,156.0
2023-01-16T16:25:00.758Z,159.0
2023-01-16T16:30:00.549Z,146.8
2023-01-16T16:35:00.838Z,132.6
2023-01-16T16:40:00.705Z,157.2
2023-01-16T16:45:00.845Z,144.2
2023-01-16T16:50:01.071Z,155.7
2023-01-16T16:55:00.709Z,155.3
2023-01-16T17:00:00.641Z,152.1
2023-01-16T17:05:00.751Z,152.6
2023-01-16T17:10:00.568Z,152.5
2023-01-16T17:15:00.712Z,147.5
2023-01-16T17:20:00.712Z,163.1
2023-01-16T17:25:00.708Z,160.2
2023-01-16T17:30:00.553Z,142.9
2023-01-16T17:35:00.729Z,151.8
2023-01-16T17:40:00.695Z,162.0
2023-01-16T17:45:00.658Z,155.7
2023-01-16T17:50:00.590Z,155.9
2023-01-16T17:55:00.697Z,151.4
2023-01-16T18:00:00.514Z,156.2
2023-01-16T18:05:00.745Z,139.8
2023-01-16T18:10:00.538Z,166.4
2023-01-16T18:15:00.688Z,156.9
2023-01-16T18:20:00.543Z,154.0
2023-01-16T18:25:00.717Z,155.3
2023-01-16T18:30:00.555Z,155.0
2023-01-16T18:35:03.044Z,155.9
2023-01-16T18:40:00.536Z,159.2
2023-01-16T18:45:00.680Z,155.8
2023-01-16T18:50:00.538Z,158.4
2023-01-16T18:55:02.571Z,154.1
2023-01-16T19:00:13.800Z,153.4
2023-01-16T19:05:00.674Z,155.3
2023-01-16T19:10:00.531Z,159.2
2023-01-16T19:15:00.726Z,159.2
2023-01-16T19:20:00.534Z,158.3
2023-01-16T19:25:00.699Z,158.1
2023-01-16T19:30:00.515Z,150.1
2023-01-16T19:35:00.686Z,163.9
2023-01-16T19:40:00.572Z,158.7
2023-01-16T19:45:00.697Z,149.1
2023-01-16T19:50:00.608Z,154.0
2023-01-16T19:55:00.693Z,153.3
2023-01-16T20:00:00.519Z,154.8
2023-01-16T20:05:00.739Z,152.6
2023-01-16T20:10:00.686Z,152.0
2023-01-16T20:15:01.054Z,150.0
2023-01-16T20:20:00.507Z,167.5
2023-01-16T20:25:00.711Z,158.0
2023-01-16T20:30:00.543Z,160.0
2023-01-16T20:35:02.717Z,155.4
2023-01-16T20:40:00.713Z,152.8
2023-01-16T20:45:00.694Z,151.2
2023-01-16T20:50:00.551Z,160.1
2023-01-16T20:55:04.835Z,151.5
2023-01-16T21:00:00.547Z,161.7
2023-01-16T21:05:00.800Z,152.3
2023-01-16T21:10:00.537Z,159.8
2023-01-16T21:15:02.676Z,153.7
2023-01-16T21:20:00.539Z,152.7
2023-01-16T21:25:00.759Z,157.2
2023-01-16T21:30:00.551Z,156.8
2023-01-16T21:35:00.702Z,162.8
2023-01-16T21:40:00.769Z,154.5
2023-01-16T21:45:00.714Z,159.6
2023-01-16T21:50:00.544Z,149.5
2023-01-16T21:55:00.665Z,152.6
2023-01-16T22:00:00.544Z,150.8
2023-01-16T22:05:00.733Z,154.4
2023-01-16T22:10:00.508Z,149.4
2023-01-16T22:15:00.690Z,155.0
2023-01-16T22:20:00.666Z,147.7
2023-01-16T22:25:00.740Z,151.0
2023-01-16T22:30:00.593Z,150.1
2023-01-16T22:35:00.856Z,167.8
2023-01-16T22:40:00.590Z,153.4
2023-01-16T22:45:00.702Z,164.7
2023-01-16T22:50:00.561Z,147.2
2023-01-16T22:55:00.679Z,162.5
2023-01-16T23:00:00.633Z,159.5
2023-01-16T23:05:00.732Z,159.2
2023-01-16T23:10:00.582Z,165.2
2023-01-16T23:15:00.749Z,154.1
2023-01-16T23:20:00.593Z,156.4
2023-01-16T23:25:00.738Z,154.3
2023-01-16T23:30:00.537Z,156.7
2023-01-16T23:35:00.675Z,161.0
2023-01-16T23:40:00.575Z,151.6
2023-01-16T23:45:00.684Z,159.2
2023-01-16T23:50:00.509Z,160.0
2023-01-16T23:55:00.713Z,159.7
